createdAt,value
2018-02-27T00:01:47.723Z,45.63
2018-02-27T00:04:15.243Z,45.61
2018-02-27T00:06:42.763Z,45.81
2018-02-27T00:09:10.278Z,45.97
2018-02-27T00:11:37.802Z,46.10
2018-02-27T00:14:05.323Z,46.06
2018-02-27T00:16:32.845Z,46.19
2018-02-27T00:19:00.378Z,46.24
2018-02-27T00:21:27.925Z,46.25
2018-02-27T00:23:55.453Z,46.41
2018-02-27T00:26:23.774Z,46.68
2018-02-27T00:28:51.288Z,46.52
2018-02-27T00:31:18.821Z,46.69
2018-02-27T00:33:46.343Z,46.70
2018-02-27T00:36:13.864Z,46.87
2018-02-27T00:38:41.386Z,46.76
2018-02-27T00:41:08.908Z,46.97
2018-02-27T00:43:36.428Z,47.17
2018-02-27T00:46:03.946Z,47.26
2018-02-27T00:48:31.477Z,47.20
2018-02-27T00:50:58.992Z,47.23
2018-02-27T00:53:26.503Z,47.63
2018-02-27T00:55:54.031Z,47.75
2018-02-27T00:58:21.572Z,47.72
2018-02-27T01:00:49.106Z,48.37
2018-02-27T01:03:16.624Z,48.28
2018-02-27T01:05:44.132Z,48.28
2018-02-27T01:08:11.648Z,48.09
2018-02-27T01:10:39.161Z,48.04
2018-02-27T01:13:06.681Z,48.10
2018-02-27T01:15:34.215Z,48.08
2018-02-27T01:18:01.741Z,48.10
2018-02-27T01:20:29.271Z,48.42
2018-02-27T01:22:56.801Z,48.60
2018-02-27T01:25:24.323Z,48.38
2018-02-27T01:27:51.850Z,48.43
2018-02-27T01:30:19.378Z,48.59
2018-02-27T01:32:46.908Z,48.82
2018-02-27T01:35:14.435Z,48.73
2018-02-27T01:37:41.950Z,48.94
2018-02-27T01:40:09.474Z,48.93
2018-02-27T01:42:37.002Z,49.10
2018-02-27T01:45:04.527Z,49.02
2018-02-27T01:47:32.054Z,49.23
2018-02-27T01:49:59.569Z,48.91
2018-02-27T01:52:27.101Z,48.92
2018-02-27T01:54:54.628Z,49.04
2018-02-27T01:57:22.173Z,49.54
2018-02-27T01:59:49.704Z,49.26
2018-02-27T02:02:17.217Z,49.32
2018-02-27T02:04:44.736Z,49.23
2018-02-27T02:07:12.256Z,49.35
2018-02-27T02:09:39.780Z,49.39
2018-02-27T02:12:07.331Z,49.28
2018-02-27T02:14:34.873Z,49.32
2018-02-27T02:17:02.393Z,49.63
2018-02-27T02:19:29.924Z,49.39
2018-02-27T02:21:57.449Z,49.63
2018-02-27T02:24:24.988Z,49.49
2018-02-27T02:26:52.502Z,49.53
2018-02-27T02:29:20.019Z,49.53
2018-02-27T02:31:47.540Z,49.87
2018-02-27T02:34:15.066Z,49.79
2018-02-27T02:36:42.626Z,49.71
2018-02-27T02:39:10.150Z,49.52
2018-02-27T02:41:37.675Z,49.64
2018-02-27T02:44:05.206Z,49.39
2018-02-27T02:46:32.738Z,49.65
2018-02-27T02:49:00.256Z,49.64
2018-02-27T02:51:27.774Z,49.48
2018-02-27T02:53:55.289Z,49.63
2018-02-27T02:56:22.800Z,49.43
2018-02-27T02:58:50.339Z,49.34
2018-02-27T03:01:17.867Z,49.61
2018-02-27T03:03:45.389Z,49.50
2018-02-27T03:06:12.913Z,49.48
2018-02-27T03:08:40.445Z,49.51
2018-02-27T03:11:07.970Z,49.40
2018-02-27T03:13:35.503Z,49.63
2018-02-27T03:16:03.025Z,49.67
2018-02-27T03:18:30.540Z,49.65
2018-02-27T03:20:58.070Z,49.81
2018-02-27T03:23:25.599Z,49.29
2018-02-27T03:25:53.126Z,49.90
2018-02-27T03:28:20.643Z,49.88
2018-02-27T03:30:48.179Z,49.69
2018-02-27T03:33:15.684Z,49.65
2018-02-27T03:35:43.218Z,50.00
2018-02-27T03:38:10.730Z,49.96
2018-02-27T03:40:38.253Z,49.82
2018-02-27T03:43:05.771Z,49.83
2018-02-27T03:45:33.285Z,49.59
2018-02-27T03:48:00.802Z,49.76
2018-02-27T03:50:28.313Z,49.40
2018-02-27T03:52:55.841Z,49.73
2018-02-27T03:55:23.374Z,49.71
2018-02-27T03:57:50.923Z,49.72
2018-02-27T04:00:18.444Z,50.18
2018-02-27T04:02:45.976Z,50.14
2018-02-27T04:05:13.491Z,49.94
2018-02-27T04:07:41.024Z,49.68
2018-02-27T04:10:08.551Z,49.80
2018-02-27T04:12:36.082Z,49.79
2018-02-27T04:15:03.637Z,49.71
2018-02-27T04:17:31.161Z,49.91
2018-02-27T04:19:58.676Z,49.87
2018-02-27T04:22:26.192Z,50.06
2018-02-27T04:24:53.705Z,49.94
2018-02-27T04:27:21.224Z,49.88
2018-02-27T04:29:48.754Z,50.08
2018-02-27T04:32:16.285Z,50.72
2018-02-27T04:34:43.805Z,50.36
2018-02-27T04:37:11.378Z,50.31
2018-02-27T04:39:38.907Z,49.92
2018-02-27T04:42:06.429Z,49.70
2018-02-27T04:44:33.943Z,50.18
2018-02-27T04:47:02.374Z,50.00
2018-02-27T04:49:29.897Z,50.24
2018-02-27T04:51:57.425Z,50.38
2018-02-27T04:54:24.954Z,50.37
2018-02-27T04:56:52.466Z,50.55
2018-02-27T04:59:19.987Z,50.52
2018-02-27T05:01:47.511Z,50.69
2018-02-27T05:04:15.017Z,50.37
2018-02-27T05:06:42.556Z,50.32
2018-02-27T05:09:10.090Z,49.90
2018-02-27T05:11:37.628Z,49.38
2018-02-27T05:14:05.141Z,49.08
2018-02-27T05:16:32.659Z,49.65
2018-02-27T05:19:00.186Z,49.50
2018-02-27T05:21:27.700Z,49.59
2018-02-27T05:23:55.211Z,49.66
2018-02-27T05:26:22.732Z,49.73
2018-02-27T05:28:50.257Z,50.14
2018-02-27T05:31:17.833Z,50.61
2018-02-27T05:33:45.347Z,51.55
2018-02-27T05:36:12.862Z,51.81
2018-02-27T05:38:40.390Z,52.51
2018-02-27T05:41:07.905Z,52.80
2018-02-27T05:43:35.437Z,52.42
2018-02-27T05:46:02.961Z,52.70
2018-02-27T05:48:30.480Z,52.50
2018-02-27T05:50:58.005Z,52.78
2018-02-27T05:53:25.520Z,52.12
2018-02-27T05:55:53.050Z,52.59
2018-02-27T05:58:20.584Z,52.37
2018-02-27T06:00:48.111Z,52.71
2018-02-27T06:03:15.629Z,53.00
2018-02-27T06:05:43.151Z,53.21
2018-02-27T06:08:10.673Z,53.23
2018-02-27T06:10:38.201Z,52.89
2018-02-27T06:13:05.790Z,53.37
2018-02-27T06:15:33.269Z,53.31
2018-02-27T06:18:00.781Z,55.32
2018-02-27T06:20:28.309Z,55.59
2018-02-27T06:22:55.829Z,55.24
2018-02-27T06:25:23.344Z,52.97
2018-02-27T06:27:50.866Z,53.21
2018-02-27T06:30:18.397Z,52.28
2018-02-27T06:32:45.918Z,52.07
2018-02-27T06:35:13.449Z,51.93
2018-02-27T06:37:40.973Z,52.24
2018-02-27T06:40:08.489Z,52.63
2018-02-27T06:42:36.032Z,52.31
2018-02-27T06:45:03.552Z,51.59
2018-02-27T06:47:31.080Z,51.64
2018-02-27T06:49:58.635Z,51.14
2018-02-27T06:52:26.160Z,50.66
2018-02-27T06:54:53.706Z,50.71
2018-02-27T06:57:21.241Z,50.31
2018-02-27T06:59:48.769Z,50.78
2018-02-27T07:02:16.335Z,49.47
2018-02-27T07:04:43.824Z,48.98
2018-02-27T07:07:11.341Z,48.96
2018-02-27T07:09:38.870Z,48.50
2018-02-27T07:12:06.403Z,48.73
2018-02-27T07:14:33.925Z,47.58
2018-02-27T07:17:01.448Z,48.06
2018-02-27T07:19:28.977Z,47.52
2018-02-27T07:21:56.501Z,47.74
2018-02-27T07:24:24.035Z,47.72
2018-02-27T07:26:51.554Z,47.46
2018-02-27T07:29:19.075Z,46.15
2018-02-27T07:31:46.602Z,45.68
2018-02-27T07:34:14.138Z,45.56
2018-02-27T07:36:41.656Z,44.39
2018-02-27T07:39:09.170Z,44.35
2018-02-27T07:41:36.722Z,43.56
2018-02-27T07:44:04.246Z,43.47
2018-02-27T07:46:31.798Z,42.10
2018-02-27T07:48:59.325Z,41.08
2018-02-27T07:51:26.849Z,39.63
2018-02-27T07:53:54.373Z,39.89
2018-02-27T07:56:21.930Z,39.10
2018-02-27T07:58:49.462Z,38.88
2018-02-27T08:01:17.002Z,37.70
2018-02-27T08:03:44.520Z,36.55
2018-02-27T08:06:12.067Z,35.91
2018-02-27T08:08:39.600Z,35.58
2018-02-27T08:11:07.127Z,33.58
2018-02-27T08:13:34.641Z,33.71
2018-02-27T08:16:02.175Z,32.56
2018-02-27T08:18:29.705Z,32.73
2018-02-27T08:20:57.221Z,30.99
2018-02-27T08:23:24.752Z,32.76
2018-02-27T08:25:52.269Z,31.41
2018-02-27T08:28:19.807Z,29.93
2018-02-27T08:30:47.325Z,30.07
2018-02-27T08:33:14.843Z,30.32
2018-02-27T08:35:42.361Z,30.79
2018-02-27T08:38:09.887Z,32.60
2018-02-27T08:40:37.398Z,34.79
2018-02-27T08:43:04.926Z,31.72
2018-02-27T08:45:32.448Z,33.84
2018-02-27T08:47:59.973Z,32.59
2018-02-27T08:50:27.544Z,32.46
2018-02-27T08:52:55.037Z,31.51
2018-02-27T08:55:22.564Z,31.19
2018-02-27T08:57:50.084Z,31.84
2018-02-27T09:00:17.611Z,31.83
2018-02-27T09:02:45.130Z,30.77
2018-02-27T09:05:12.652Z,30.59
2018-02-27T09:07:40.170Z,30.45
2018-02-27T09:10:07.699Z,30.17
2018-02-27T09:12:35.230Z,30.64
2018-02-27T09:15:02.771Z,30.79
2018-02-27T09:17:30.276Z,29.64
2018-02-27T09:19:57.807Z,32.14
2018-02-27T09:22:25.329Z,29.63
2018-02-27T09:24:52.849Z,30.33
2018-02-27T09:27:20.394Z,28.20
2018-02-27T09:29:47.908Z,28.95
2018-02-27T09:32:15.496Z,25.47
2018-02-27T09:34:43.015Z,26.15
2018-02-27T09:37:10.529Z,25.76
2018-02-27T09:39:38.045Z,25.45
2018-02-27T09:42:05.599Z,25.39
2018-02-27T09:44:33.121Z,27.42
2018-02-27T09:47:00.634Z,27.17
2018-02-27T09:49:28.162Z,25.71
2018-02-27T09:51:55.672Z,25.07
2018-02-27T09:54:23.182Z,23.28
2018-02-27T09:56:50.694Z,21.83
2018-02-27T09:59:18.212Z,21.76
2018-02-27T10:01:45.745Z,21.14
2018-02-27T10:04:13.265Z,20.53
2018-02-27T10:06:40.791Z,21.93
2018-02-27T10:09:08.309Z,20.61
2018-02-27T10:11:35.829Z,19.18
2018-02-27T10:14:03.355Z,21.32
2018-02-27T10:16:30.862Z,21.94
2018-02-27T10:18:58.379Z,24.87
2018-02-27T10:21:25.891Z,26.26
2018-02-27T10:23:53.421Z,27.46
2018-02-27T10:26:20.937Z,26.99
2018-02-27T10:28:48.470Z,28.29
2018-02-27T10:31:15.996Z,29.43
2018-02-27T10:33:43.526Z,30.21
2018-02-27T10:36:11.041Z,30.59
2018-02-27T10:38:38.570Z,31.29
2018-02-27T10:41:06.109Z,30.42
2018-02-27T10:43:33.628Z,30.59
2018-02-27T10:46:01.137Z,30.76
2018-02-27T10:48:28.652Z,31.07
2018-02-27T10:50:56.202Z,32.02
2018-02-27T10:53:23.736Z,32.63
2018-02-27T10:55:51.266Z,33.16
2018-02-27T10:58:18.806Z,32.69
2018-02-27T11:00:51.357Z,32.57
2018-02-27T11:03:18.891Z,32.50
2018-02-27T11:05:46.442Z,34.32
2018-02-27T11:08:14.042Z,33.03
2018-02-27T11:10:41.630Z,34.47
2018-02-27T11:13:09.154Z,34.51
2018-02-27T11:15:36.677Z,33.42
2018-02-27T11:18:04.205Z,33.77
2018-02-27T11:20:31.735Z,33.56
2018-02-27T11:22:59.263Z,34.21
2018-02-27T11:25:26.787Z,33.24
2018-02-27T11:27:54.308Z,33.35
2018-02-27T11:30:21.839Z,33.13
2018-02-27T11:32:49.367Z,33.73
2018-02-27T11:35:16.907Z,34.05
2018-02-27T11:37:44.416Z,34.04
2018-02-27T11:40:12.008Z,34.49
2018-02-27T11:42:39.549Z,34.95
2018-02-27T11:45:07.077Z,34.55
2018-02-27T11:47:34.618Z,35.33
2018-02-27T11:50:02.148Z,34.97
2018-02-27T11:52:29.704Z,34.77
2018-02-27T11:54:57.271Z,36.40
2018-02-27T11:57:24.808Z,35.65
2018-02-27T11:59:52.320Z,36.18
2018-02-27T12:02:19.879Z,35.48
2018-02-27T12:04:47.370Z,35.04
2018-02-27T12:07:14.921Z,35.58
2018-02-27T12:09:42.451Z,36.22
2018-02-27T12:12:09.980Z,35.82
2018-02-27T12:14:37.525Z,35.05
2018-02-27T12:17:05.049Z,34.88
2018-02-27T12:19:32.576Z,35.11
2018-02-27T12:22:00.116Z,34.46
2018-02-27T12:24:28.256Z,34.54
2018-02-27T12:26:55.785Z,35.22
2018-02-27T12:29:23.292Z,35.00
2018-02-27T12:31:50.830Z,35.78
2018-02-27T12:34:18.373Z,35.29
2018-02-27T12:36:45.901Z,35.33
2018-02-27T12:39:13.415Z,35.56
2018-02-27T12:41:40.941Z,36.22
2018-02-27T12:44:08.448Z,36.95
2018-02-27T12:46:35.973Z,37.19
2018-02-27T12:49:03.510Z,36.39
2018-02-27T12:51:31.101Z,36.69
2018-02-27T12:53:58.639Z,36.66
2018-02-27T12:56:26.160Z,37.36
2018-02-27T12:58:53.683Z,36.92
2018-02-27T13:01:21.203Z,38.21
2018-02-27T13:03:48.730Z,37.61
2018-02-27T13:06:16.286Z,37.97
2018-02-27T13:08:43.867Z,37.76
2018-02-27T13:11:11.403Z,37.30
2018-02-27T13:13:38.938Z,38.85
2018-02-27T13:16:06.461Z,38.88
2018-02-27T13:18:33.981Z,38.48
2018-02-27T13:21:01.506Z,37.87
2018-02-27T13:23:29.042Z,37.85
2018-02-27T13:25:56.631Z,38.15
2018-02-27T13:28:24.165Z,38.07
2018-02-27T13:30:51.716Z,36.99
2018-02-27T13:33:19.245Z,37.17
2018-02-27T13:35:46.768Z,37.15
2018-02-27T13:38:14.301Z,37.83
2018-02-27T13:40:41.820Z,37.83
2018-02-27T13:43:09.382Z,38.15
2018-02-27T13:45:36.967Z,37.76
2018-02-27T13:48:04.491Z,37.41
2018-02-27T13:50:32.025Z,37.76
2018-02-27T13:52:59.561Z,38.74
2018-02-27T13:55:27.117Z,37.56
2018-02-27T13:57:54.758Z,37.55
2018-02-27T14:00:22.286Z,37.41
2018-02-27T14:02:49.868Z,38.06
2018-02-27T14:05:17.387Z,38.78
2018-02-27T14:07:44.954Z,39.93
2018-02-27T14:10:12.472Z,38.82
2018-02-27T14:12:40.019Z,40.21
2018-02-27T14:15:07.539Z,39.68
2018-02-27T14:17:35.052Z,38.47
2018-02-27T14:20:02.573Z,38.22
2018-02-27T14:22:30.090Z,38.73
2018-02-27T14:24:57.614Z,39.27
2018-02-27T14:27:25.135Z,39.70
2018-02-27T14:29:52.650Z,39.66
2018-02-27T14:32:20.166Z,40.49
2018-02-27T14:34:47.680Z,41.91
2018-02-27T14:37:15.205Z,41.76
2018-02-27T14:39:42.745Z,42.02
2018-02-27T14:42:10.277Z,40.81
2018-02-27T14:44:37.798Z,42.15
2018-02-27T14:47:05.313Z,43.53
2018-02-27T14:49:32.831Z,43.81
2018-02-27T14:52:00.359Z,43.90
2018-02-27T14:54:27.885Z,43.36
2018-02-27T14:56:55.408Z,44.93
2018-02-27T14:59:22.932Z,46.06
2018-02-27T15:01:50.476Z,45.99
2018-02-27T15:04:18.002Z,46.77
2018-02-27T15:06:45.529Z,45.61
2018-02-27T15:09:13.071Z,46.26
2018-02-27T15:11:40.604Z,45.50
2018-02-27T15:14:08.125Z,46.20
2018-02-27T15:16:35.681Z,45.73
2018-02-27T15:19:03.211Z,46.15
2018-02-27T15:21:30.728Z,45.83
2018-02-27T15:23:58.270Z,45.84
2018-02-27T15:26:25.803Z,45.25
2018-02-27T15:28:53.325Z,45.76
2018-02-27T15:31:20.853Z,46.43
2018-02-27T15:33:48.407Z,46.80
2018-02-27T15:36:15.926Z,46.10
2018-02-27T15:38:43.464Z,46.51
2018-02-27T15:41:10.992Z,47.47
2018-02-27T15:43:38.517Z,47.02
2018-02-27T15:46:06.034Z,47.42
2018-02-27T15:48:33.562Z,47.46
2018-02-27T15:51:01.096Z,47.60
2018-02-27T15:53:28.639Z,46.77
2018-02-27T15:55:56.167Z,47.16
2018-02-27T15:58:23.699Z,47.43
2018-02-27T16:00:51.348Z,48.55
2018-02-27T16:03:18.871Z,49.78
2018-02-27T16:05:46.408Z,52.41
2018-02-27T16:08:13.931Z,52.57
2018-02-27T16:10:41.462Z,51.83
2018-02-27T16:13:08.984Z,52.60
2018-02-27T16:15:36.505Z,52.03
2018-02-27T16:18:04.012Z,51.71
2018-02-27T16:20:31.531Z,51.71
2018-02-27T16:22:59.055Z,51.46
2018-02-27T16:25:26.584Z,51.13
2018-02-27T16:27:54.110Z,52.62
2018-02-27T16:30:21.675Z,52.11
2018-02-27T16:32:49.204Z,52.50
2018-02-27T16:35:16.755Z,52.06
2018-02-27T16:37:44.269Z,52.51
2018-02-27T16:40:11.808Z,53.81
2018-02-27T16:42:39.348Z,54.58
2018-02-27T16:45:06.886Z,54.52
2018-02-27T16:47:34.413Z,54.36
2018-02-27T16:50:01.950Z,54.76
2018-02-27T16:52:29.484Z,54.41
2018-02-27T16:54:57.001Z,54.52
2018-02-27T16:57:24.525Z,55.86
2018-02-27T16:59:52.051Z,55.38
2018-02-27T17:02:19.577Z,55.56
2018-02-27T17:04:47.096Z,55.74
2018-02-27T17:07:14.629Z,55.50
2018-02-27T17:09:42.147Z,54.93
2018-02-27T17:12:09.680Z,56.04
2018-02-27T17:14:37.202Z,55.64
2018-02-27T17:17:04.733Z,56.89
2018-02-27T17:19:32.277Z,58.42
2018-02-27T17:21:59.801Z,57.88
2018-02-27T17:24:27.325Z,61.20
2018-02-27T17:26:54.874Z,62.55
2018-02-27T17:29:22.409Z,62.81
2018-02-27T17:31:49.969Z,63.75
2018-02-27T17:34:17.511Z,65.04
2018-02-27T17:36:45.036Z,65.15
2018-02-27T17:39:12.561Z,65.24
2018-02-27T17:41:40.091Z,65.38
2018-02-27T17:44:07.618Z,64.80
2018-02-27T17:46:35.144Z,64.00
2018-02-27T17:49:02.668Z,62.72
2018-02-27T17:51:30.210Z,62.61
2018-02-27T17:53:57.742Z,62.14
2018-02-27T17:56:25.270Z,61.56
2018-02-27T17:58:52.802Z,61.36
2018-02-27T18:01:20.330Z,60.76
2018-02-27T18:03:47.845Z,60.44
2018-02-27T18:06:15.384Z,60.90
2018-02-27T18:08:42.911Z,60.30
2018-02-27T18:11:10.438Z,60.39
2018-02-27T18:13:37.969Z,60.37
2018-02-27T18:16:05.512Z,60.86
2018-02-27T18:18:33.050Z,60.73
2018-02-27T18:21:00.579Z,61.01
2018-02-27T18:23:28.125Z,61.09
2018-02-27T18:25:55.648Z,61.44
2018-02-27T18:28:23.199Z,61.01
2018-02-27T18:30:51.284Z,60.43
2018-02-27T18:33:18.814Z,59.50
2018-02-27T18:35:46.329Z,59.70
2018-02-27T18:38:13.882Z,60.17
2018-02-27T18:40:41.415Z,60.15
2018-02-27T18:43:08.951Z,60.42
2018-02-27T18:45:36.470Z,60.36
2018-02-27T18:48:03.998Z,59.75
2018-02-27T18:50:31.528Z,59.00
2018-02-27T18:52:59.059Z,59.66
2018-02-27T18:55:26.589Z,59.44
2018-02-27T18:57:54.138Z,59.40
2018-02-27T19:00:21.670Z,59.64
2018-02-27T19:02:49.387Z,59.93
2018-02-27T19:05:16.944Z,59.88
2018-02-27T19:07:44.474Z,61.57
2018-02-27T19:10:11.990Z,60.46
2018-02-27T19:12:39.521Z,60.08
2018-02-27T19:15:07.055Z,61.20
2018-02-27T19:17:34.587Z,61.36
2018-02-27T19:20:02.105Z,61.79
2018-02-27T19:22:29.658Z,61.54
2018-02-27T19:24:57.226Z,61.15
2018-02-27T19:27:24.755Z,61.91
2018-02-27T19:29:52.288Z,60.90
2018-02-27T19:32:19.872Z,61.29
2018-02-27T19:34:47.376Z,62.33
2018-02-27T19:37:14.963Z,61.56
2018-02-27T19:39:42.517Z,61.60
2018-02-27T19:42:10.042Z,61.57
2018-02-27T19:44:37.570Z,61.17
2018-02-27T19:47:05.096Z,61.82
2018-02-27T19:49:32.642Z,60.68
2018-02-27T19:52:00.182Z,60.78
2018-02-27T19:54:27.757Z,62.34
2018-02-27T19:56:55.288Z,62.90
2018-02-27T19:59:22.923Z,62.76
2018-02-27T20:01:50.716Z,63.06
2018-02-27T20:04:18.453Z,64.06
2018-02-27T20:06:46.009Z,64.24
2018-02-27T20:09:13.527Z,64.98
2018-02-27T20:11:41.041Z,65.31
2018-02-27T20:14:08.763Z,65.16
2018-02-27T20:16:36.510Z,65.32
2018-02-27T20:19:04.069Z,65.14
2018-02-27T20:21:31.732Z,65.34
2018-02-27T20:24:04.839Z,65.78
2018-02-27T20:26:32.377Z,65.88
2018-02-27T20:29:05.735Z,66.13
2018-02-27T20:31:33.343Z,65.73
2018-02-27T20:34:00.888Z,66.34
2018-02-27T20:36:28.427Z,65.15
2018-02-27T20:39:01.548Z,64.34
2018-02-27T20:41:29.089Z,64.30
2018-02-27T20:43:56.649Z,64.63
2018-02-27T20:46:24.175Z,64.37
2018-02-27T20:48:52.538Z,63.51
2018-02-27T20:51:20.281Z,63.72
2018-02-27T20:53:47.801Z,63.54
2018-02-27T20:56:15.414Z,62.01
2018-02-27T20:58:42.982Z,60.63
2018-02-27T21:01:10.526Z,59.47
2018-02-27T21:03:38.060Z,59.09
2018-02-27T21:06:05.599Z,58.27
2018-02-27T21:08:33.131Z,58.28
2018-02-27T21:11:00.649Z,58.13
2018-02-27T21:13:29.072Z,57.76
2018-02-27T21:15:56.636Z,57.84
2018-02-27T21:18:24.161Z,57.52
2018-02-27T21:20:51.685Z,57.62
2018-02-27T21:23:19.241Z,57.57
2018-02-27T21:25:46.769Z,57.75
2018-02-27T21:28:14.289Z,56.81
2018-02-27T21:30:41.833Z,56.71
2018-02-27T21:33:09.376Z,56.77
2018-02-27T21:35:36.936Z,56.78
2018-02-27T21:38:04.460Z,56.50
2018-02-27T21:40:31.990Z,56.16
2018-02-27T21:42:59.516Z,55.43
2018-02-27T21:45:27.056Z,55.36
2018-02-27T21:47:54.587Z,55.18
2018-02-27T21:50:22.127Z,54.93
2018-02-27T21:52:49.654Z,54.97
2018-02-27T21:55:17.196Z,55.05
2018-02-27T21:57:44.778Z,54.76
2018-02-27T22:00:12.329Z,54.29
2018-02-27T22:02:39.882Z,54.28
2018-02-27T22:05:07.430Z,54.12
2018-02-27T22:07:34.972Z,54.07
2018-02-27T22:10:02.505Z,54.46
2018-02-27T22:12:30.039Z,54.36
2018-02-27T22:14:57.581Z,53.75
2018-02-27T22:17:25.112Z,53.27
2018-02-27T22:19:52.656Z,52.98
2018-02-27T22:22:20.170Z,51.99
2018-02-27T22:24:47.717Z,51.81
2018-02-27T22:27:15.250Z,51.69
2018-02-27T22:29:42.774Z,51.47
2018-02-27T22:32:10.296Z,51.67
2018-02-27T22:34:37.826Z,51.65
2018-02-27T22:37:05.378Z,52.04
2018-02-27T22:39:32.916Z,52.27
2018-02-27T22:42:00.437Z,52.35
2018-02-27T22:44:27.965Z,52.83
2018-02-27T22:46:55.489Z,53.26
2018-02-27T22:49:23.016Z,53.72
2018-02-27T22:51:50.543Z,54.04
2018-02-27T22:54:18.070Z,54.54
2018-02-27T22:56:45.664Z,54.37
2018-02-27T22:59:13.192Z,54.91
2018-02-27T23:01:40.749Z,55.13
2018-02-27T23:04:08.287Z,55.36
2018-02-27T23:06:35.992Z,55.04
2018-02-27T23:09:03.535Z,55.15
2018-02-27T23:11:31.070Z,55.42
2018-02-27T23:13:58.613Z,55.97
2018-02-27T23:16:26.140Z,56.71
2018-02-27T23:18:53.677Z,56.66
2018-02-27T23:21:21.201Z,56.91
2018-02-27T23:23:49.316Z,57.36
2018-02-27T23:26:22.044Z,57.37
2018-02-27T23:28:50.701Z,57.50
2018-02-27T23:31:18.321Z,58.03
2018-02-27T23:33:46.436Z,58.33
2018-02-27T23:36:13.963Z,58.27
2018-02-27T23:38:41.493Z,58.35
2018-02-27T23:41:09.037Z,58.66
2018-02-27T23:43:36.573Z,58.67
2018-02-27T23:46:04.104Z,58.14
2018-02-27T23:48:31.657Z,59.01
2018-02-27T23:50:59.183Z,59.11
2018-02-27T23:53:26.722Z,58.79
2018-02-27T23:55:54.266Z,59.54
2018-02-27T23:58:21.796Z,59.90
